createdAt,value
2018-12-17T00:01:03.458Z,100221.47
2018-12-17T00:03:32.097Z,100217.95
2018-12-17T00:06:00.317Z,100215.76
2018-12-17T00:08:32.019Z,100213.69
2018-12-17T00:10:59.196Z,100220.01
2018-12-17T00:13:27.417Z,100217.33
2018-12-17T00:15:55.583Z,100206.75
2018-12-17T00:18:23.656Z,100210.11
2018-12-17T00:20:51.857Z,100211.01
2018-12-17T00:23:19.937Z,100203.02
2018-12-17T00:25:48.076Z,100203.06
2018-12-17T00:28:16.197Z,100204.05
2018-12-17T00:30:44.339Z,100201.03
2018-12-17T00:33:12.418Z,100204.45
2018-12-17T00:35:40.577Z,100202.39
2018-12-17T00:38:08.657Z,100196.84
2018-12-17T00:40:40.998Z,100193.31
2018-12-17T00:43:09.117Z,100209.33
2018-12-17T00:45:37.250Z,100198.96
2018-12-17T00:48:05.437Z,100206.05
2018-12-17T00:50:33.537Z,100209.48
2018-12-17T00:53:01.697Z,100206.27
2018-12-17T00:55:29.857Z,100210.00
2018-12-17T00:57:57.977Z,100212.59
2018-12-17T01:00:26.137Z,100213.27
2018-12-17T01:02:54.338Z,100211.92
2018-12-17T01:05:22.417Z,100210.25
2018-12-17T01:07:50.550Z,100209.00
2018-12-17T01:10:19.077Z,100213.41
2018-12-17T01:12:47.258Z,100219.27
2018-12-17T01:15:15.440Z,100215.94
2018-12-17T01:17:43.659Z,100216.48
2018-12-17T01:20:11.817Z,100216.16
2018-12-17T01:22:39.998Z,100221.84
2018-12-17T01:25:08.217Z,100228.28
2018-12-17T01:27:36.338Z,100230.27
2018-12-17T01:30:05.459Z,100236.59
2018-12-17T01:32:33.819Z,100234.17
2018-12-17T01:35:01.929Z,100240.80
2018-12-17T01:37:30.337Z,100242.39
2018-12-17T01:39:58.400Z,100254.05
2018-12-17T01:42:26.637Z,100252.55
2018-12-17T01:44:54.617Z,100251.94
2018-12-17T01:47:23.237Z,100260.41
2018-12-17T01:49:51.321Z,100260.34
2018-12-17T01:52:19.376Z,100262.77
2018-12-17T01:54:47.477Z,100266.78
2018-12-17T01:57:15.717Z,100264.42
2018-12-17T01:59:43.757Z,100259.93
2018-12-17T02:02:11.980Z,100259.75
2018-12-17T02:04:41.657Z,100262.20
2018-12-17T02:07:10.037Z,100259.16
2018-12-17T02:09:38.278Z,100255.80
2018-12-17T02:12:06.441Z,100251.86
2018-12-17T02:14:36.739Z,100250.77
2018-12-17T02:17:05.257Z,100249.94
2018-12-17T02:19:33.637Z,100246.23
2018-12-17T02:22:01.917Z,100250.03
2018-12-17T02:24:30.236Z,100250.70
2018-12-17T02:26:58.916Z,100254.23
2018-12-17T02:29:27.359Z,100249.00
2018-12-17T02:31:55.818Z,100247.09
2018-12-17T02:34:25.077Z,100252.45
2018-12-17T02:36:54.297Z,100248.55
2018-12-17T02:39:22.637Z,100247.97
2018-12-17T02:41:51.437Z,100253.16
2018-12-17T02:44:21.298Z,100255.13
2018-12-17T02:46:49.860Z,100261.59
2018-12-17T02:49:18.678Z,100264.20
2018-12-17T02:51:47.377Z,100263.38
2018-12-17T02:54:16.300Z,100262.91
2018-12-17T02:56:44.716Z,100262.59
2018-12-17T02:59:13.337Z,100260.48
2018-12-17T03:01:42.016Z,100266.50
2018-12-17T03:04:13.176Z,100273.91
2018-12-17T03:06:41.697Z,100274.06
2018-12-17T03:09:10.017Z,100277.95
2018-12-17T03:11:38.416Z,100271.22
2018-12-17T03:14:06.859Z,100272.00
2018-12-17T03:16:36.216Z,100275.52
2018-12-17T03:19:04.597Z,100270.33
2018-12-17T03:21:32.724Z,100274.95
2018-12-17T03:24:01.359Z,100277.67
2018-12-17T03:26:29.657Z,100278.96
2018-12-17T03:28:58.038Z,100274.32
2018-12-17T03:31:26.538Z,100285.18
2018-12-17T03:33:55.217Z,100285.03
2018-12-17T03:36:23.717Z,100287.69
2018-12-17T03:38:52.057Z,100288.89
2018-12-17T03:41:21.740Z,100290.27
2018-12-17T03:43:50.677Z,100292.14
2018-12-17T03:46:19.169Z,100290.65
2018-12-17T03:48:47.597Z,100297.77
2018-12-17T03:51:16.159Z,100292.80
2018-12-17T03:53:44.829Z,100292.43
2018-12-17T03:56:14.388Z,100300.98
2018-12-17T03:58:43.128Z,100295.48
2018-12-17T04:01:11.637Z,100303.34
2018-12-17T04:03:41.257Z,100302.30
2018-12-17T04:06:09.870Z,100307.34
2018-12-17T04:08:38.136Z,100300.64
2018-12-17T04:11:06.816Z,100298.11
2018-12-17T04:13:35.636Z,100305.24
2018-12-17T04:16:04.377Z,100302.86
2018-12-17T04:18:33.156Z,100299.69
2018-12-17T04:21:01.708Z,100294.97
2018-12-17T04:23:30.577Z,100301.05
2018-12-17T04:25:59.229Z,100306.55
2018-12-17T04:28:28.028Z,100302.59
2018-12-17T04:30:57.089Z,100303.28
2018-12-17T04:33:26.368Z,100305.06
2018-12-17T04:35:56.388Z,100312.38
2018-12-17T04:38:25.249Z,100315.08
2018-12-17T04:40:53.909Z,100311.86
2018-12-17T04:43:22.618Z,100320.62
2018-12-17T04:45:52.366Z,100317.06
2018-12-17T04:48:21.377Z,100325.67
2018-12-17T04:50:49.936Z,100327.90
2018-12-17T04:53:19.676Z,100320.49
2018-12-17T04:55:51.738Z,100322.28
2018-12-17T04:58:20.229Z,100323.17
2018-12-17T05:00:48.810Z,100330.70
2018-12-17T05:03:17.149Z,100330.72
2018-12-17T05:05:45.678Z,100331.79
2018-12-17T05:08:14.188Z,100333.86
2018-12-17T05:10:42.568Z,100341.64
2018-12-17T05:13:11.029Z,100344.29
2018-12-17T05:15:39.529Z,100343.98
2018-12-17T05:18:07.951Z,100339.86
2018-12-17T05:20:36.270Z,100340.87
2018-12-17T05:23:04.528Z,100339.13
2018-12-17T05:25:32.829Z,100339.64
2018-12-17T05:28:01.189Z,100343.25
2018-12-17T05:30:29.669Z,100340.25
2018-12-17T05:32:58.517Z,100347.77
2018-12-17T05:35:28.270Z,100349.56
2018-12-17T05:37:57.097Z,100352.70
2018-12-17T05:40:29.837Z,100346.34
2018-12-17T05:42:59.478Z,100349.57
2018-12-17T05:45:34.097Z,100358.50
2018-12-17T05:48:02.909Z,100361.47
2018-12-17T05:50:31.288Z,100356.05
2018-12-17T05:52:59.469Z,100358.04
2018-12-17T05:55:28.051Z,100352.50
2018-12-17T05:57:56.416Z,100364.86
2018-12-17T06:00:26.028Z,100365.70
2018-12-17T06:02:54.316Z,100371.80
2018-12-17T06:05:22.616Z,100372.23
2018-12-17T06:07:50.896Z,100379.23
2018-12-17T06:10:19.317Z,100380.48
2018-12-17T06:12:48.156Z,100375.66
2018-12-17T06:15:17.316Z,100370.80
2018-12-17T06:17:49.865Z,100376.30
2018-12-17T06:20:19.960Z,100372.98
2018-12-17T06:22:51.576Z,100374.68
2018-12-17T06:25:20.239Z,100375.07
2018-12-17T06:27:48.877Z,100382.47
2018-12-17T06:30:17.437Z,100382.09
2018-12-17T06:32:45.877Z,100384.70
2018-12-17T06:35:14.376Z,100391.09
2018-12-17T06:37:43.997Z,100393.11
2018-12-17T06:40:12.537Z,100390.26
2018-12-17T06:42:40.877Z,100391.23
2018-12-17T06:45:09.289Z,100395.34
2018-12-17T06:47:37.577Z,100387.24
2018-12-17T06:50:07.648Z,100399.28
2018-12-17T06:52:36.268Z,100408.34
2018-12-17T06:55:05.862Z,100412.47
2018-12-17T06:57:34.576Z,100417.00
2018-12-17T07:00:02.736Z,100419.67
2018-12-17T07:02:31.137Z,100416.35
2018-12-17T07:04:59.957Z,100419.27
2018-12-17T07:07:28.079Z,100423.94
2018-12-17T07:09:56.477Z,100422.73
2018-12-17T07:12:24.916Z,100429.91
2018-12-17T07:14:53.196Z,100430.36
2018-12-17T07:17:21.649Z,100431.71
2018-12-17T07:19:49.816Z,100446.49
2018-12-17T07:22:17.998Z,100442.66
2018-12-17T07:24:46.216Z,100444.16
2018-12-17T07:27:14.456Z,100442.58
2018-12-17T07:29:49.566Z,100445.84
2018-12-17T07:32:13.177Z,100449.06
2018-12-17T07:34:41.496Z,100439.55
2018-12-17T07:37:09.836Z,100449.44
2018-12-17T07:39:39.277Z,100442.79
2018-12-17T07:42:07.497Z,100449.77
2018-12-17T07:44:36.017Z,100456.63
2018-12-17T07:47:04.157Z,100459.47
2018-12-17T07:49:32.237Z,100446.70
2018-12-17T07:52:00.377Z,100444.11
2018-12-17T07:54:43.717Z,100459.64
2018-12-17T07:57:11.829Z,100461.69
2018-12-17T07:59:39.929Z,100466.11
2018-12-17T08:02:08.117Z,100471.66
2018-12-17T08:04:37.137Z,100480.30
2018-12-17T08:07:05.697Z,100483.02
2018-12-17T08:09:33.817Z,100483.65
2018-12-17T08:12:01.989Z,100488.48
2018-12-17T08:14:30.106Z,100493.50
2018-12-17T08:17:02.099Z,100494.54
2018-12-17T08:19:30.325Z,100498.51
2018-12-17T08:21:58.391Z,100497.50
2018-12-17T08:24:26.729Z,100504.02
2018-12-17T08:26:54.857Z,100508.31
2018-12-17T08:29:23.066Z,100511.86
2018-12-17T08:31:51.181Z,100510.44
2018-12-17T08:34:19.321Z,100511.40
2018-12-17T08:36:47.425Z,100512.79
2018-12-17T08:39:15.588Z,100521.09
2018-12-17T08:41:43.725Z,100520.51
2018-12-17T08:44:11.889Z,100527.75
2018-12-17T08:46:40.009Z,100522.83
2018-12-17T08:49:08.177Z,100514.57
2018-12-17T08:51:36.351Z,100524.80
2018-12-17T08:54:05.098Z,100522.03
2018-12-17T08:56:33.205Z,100526.58
2018-12-17T08:59:01.349Z,100533.31
2018-12-17T09:01:29.557Z,100537.09
2018-12-17T09:03:57.820Z,100536.78
2018-12-17T09:06:25.971Z,100533.55
2018-12-17T09:08:54.264Z,100538.93
2018-12-17T09:11:22.377Z,100540.56
2018-12-17T09:13:50.565Z,100544.37
2018-12-17T09:16:18.685Z,100541.08
2018-12-17T09:18:46.898Z,100551.75
2018-12-17T09:21:15.105Z,100557.02
2018-12-17T09:23:43.409Z,100563.88
2018-12-17T09:26:11.509Z,100564.20
2018-12-17T09:28:45.089Z,100560.55
2018-12-17T09:31:13.250Z,100565.92
2018-12-17T09:33:41.538Z,100559.75
2018-12-17T09:36:09.760Z,100563.69
2018-12-17T09:38:38.777Z,100556.45
2018-12-17T09:41:06.985Z,100558.77
2018-12-17T09:43:35.269Z,100557.99
2018-12-17T09:46:03.330Z,100549.55
2018-12-17T09:48:31.528Z,100556.17
2018-12-17T09:50:59.642Z,100554.07
2018-12-17T09:53:27.709Z,100558.14
2018-12-17T09:55:56.177Z,100559.14
2018-12-17T09:58:24.249Z,100559.21
2018-12-17T10:00:52.309Z,100555.84
2018-12-17T10:03:21.110Z,100549.22
2018-12-17T10:05:49.252Z,100545.37
2018-12-17T10:08:17.391Z,100541.47
2018-12-17T10:10:45.669Z,100536.55
2018-12-17T10:13:13.710Z,100542.50
2018-12-17T10:15:41.929Z,100545.15
2018-12-17T10:18:10.250Z,100540.00
2018-12-17T10:20:38.392Z,100537.63
2018-12-17T10:23:06.539Z,100541.27
2018-12-17T10:25:34.749Z,100542.27
2018-12-17T10:28:02.828Z,100543.80
2018-12-17T10:30:32.666Z,100545.70
2018-12-17T10:33:00.990Z,100541.94
2018-12-17T10:35:29.149Z,100542.41
2018-12-17T10:37:57.378Z,100538.25
2018-12-17T10:40:25.697Z,100541.45
2018-12-17T10:42:53.957Z,100548.27
2018-12-17T10:45:22.119Z,100538.92
2018-12-17T10:47:50.129Z,100538.77
2018-12-17T10:50:18.317Z,100536.31
2018-12-17T10:52:46.437Z,100545.98
2018-12-17T10:55:14.637Z,100545.31
2018-12-17T10:57:42.976Z,100548.41
2018-12-17T11:00:16.687Z,100546.15
2018-12-17T11:02:44.849Z,100546.98
2018-12-17T11:05:15.989Z,100555.09
2018-12-17T11:07:44.210Z,100554.49
2018-12-17T11:10:12.286Z,100553.99
2018-12-17T11:12:40.337Z,100550.69
2018-12-17T11:15:10.258Z,100550.86
2018-12-17T11:17:38.809Z,100552.63
2018-12-17T11:20:09.200Z,100550.33
2018-12-17T11:22:39.198Z,100550.49
2018-12-17T11:25:07.689Z,100554.46
2018-12-17T11:27:35.848Z,100554.09
2018-12-17T11:30:05.597Z,100546.42
2018-12-17T11:32:33.765Z,100537.94
2018-12-17T11:35:01.830Z,100535.77
2018-12-17T11:37:30.238Z,100538.55
2018-12-17T11:39:58.288Z,100539.11
2018-12-17T11:42:26.468Z,100548.45
2018-12-17T11:44:54.613Z,100543.31
2018-12-17T11:47:22.788Z,100539.11
2018-12-17T11:49:51.029Z,100534.53
2018-12-17T11:52:19.149Z,100540.50
2018-12-17T11:54:47.276Z,100542.72
2018-12-17T11:58:18.949Z,100528.30
2018-12-17T12:00:54.240Z,100538.04
2018-12-17T12:03:22.609Z,100540.11
2018-12-17T12:05:50.713Z,100539.97
2018-12-17T12:08:18.957Z,100537.88
2018-12-17T12:10:46.988Z,100540.55
2018-12-17T12:13:15.177Z,100536.94
2018-12-17T12:15:43.358Z,100541.22
2018-12-17T12:18:11.437Z,100537.14
2018-12-17T12:20:39.428Z,100534.33
2018-12-17T12:23:07.708Z,100535.73
2018-12-17T12:25:35.798Z,100538.53
2018-12-17T12:28:04.077Z,100538.23
2018-12-17T12:30:32.249Z,100526.65
2018-12-17T12:33:00.468Z,100531.55
2018-12-17T12:35:28.572Z,100536.36
2018-12-17T12:37:56.989Z,100531.73
2018-12-17T12:40:25.649Z,100543.05
2018-12-17T12:42:57.729Z,100545.87
2018-12-17T12:45:25.869Z,100551.25
2018-12-17T12:47:54.109Z,100557.76
2018-12-17T12:50:38.989Z,100559.94
2018-12-17T12:53:07.109Z,100559.53
2018-12-17T12:55:35.269Z,100564.41
2018-12-17T12:58:04.029Z,100563.03
2018-12-17T13:00:35.709Z,100566.81
2018-12-17T13:03:03.933Z,100574.59
2018-12-17T13:05:35.668Z,100579.63
2018-12-17T13:08:04.048Z,100574.72
2018-12-17T13:10:32.119Z,100573.69
2018-12-17T13:13:00.349Z,100577.56
2018-12-17T13:15:28.529Z,100580.80
2018-12-17T13:17:57.045Z,100589.87
2018-12-17T13:20:25.471Z,100585.67
2018-12-17T13:22:53.557Z,100589.25
2018-12-17T13:25:26.772Z,100588.58
2018-12-17T13:27:54.917Z,100588.17
2018-12-17T13:30:23.229Z,100594.29
2018-12-17T13:32:52.580Z,100589.37
2018-12-17T13:35:20.877Z,100589.61
2018-12-17T13:37:49.197Z,100593.05
2018-12-17T13:40:17.369Z,100600.70
2018-12-17T13:42:45.629Z,100601.87
2018-12-17T13:45:16.050Z,100597.86
2018-12-17T13:47:44.470Z,100605.31
2018-12-17T13:50:18.590Z,100601.41
2018-12-17T13:52:47.069Z,100612.12
2018-12-17T13:55:15.737Z,100617.39
2018-12-17T13:57:43.938Z,100621.44
2018-12-17T14:00:17.377Z,100622.47
2018-12-17T14:02:45.709Z,100632.25
2018-12-17T14:05:13.985Z,100637.49
2018-12-17T14:07:42.149Z,100632.68
2018-12-17T14:10:16.457Z,100639.19
2018-12-17T14:12:44.900Z,100637.93
2018-12-17T14:15:13.277Z,100639.50
2018-12-17T14:17:47.138Z,100641.53
2018-12-17T14:20:21.057Z,100643.07
2018-12-17T14:22:49.231Z,100651.02
2018-12-17T14:25:17.520Z,100650.66
2018-12-17T14:27:46.290Z,100652.52
2018-12-17T14:44:34.790Z,100671.80
2018-12-17T14:47:06.570Z,100672.73
2018-12-17T14:49:34.753Z,100680.55
2018-12-17T14:52:15.390Z,100675.17
2018-12-17T14:58:47.370Z,100680.98
2018-12-17T15:07:00.858Z,100695.15
2018-12-17T15:09:51.066Z,100703.20
2018-12-17T15:12:39.147Z,100709.16
2018-12-17T15:15:09.530Z,100714.13
2018-12-17T15:17:37.770Z,100720.17
2018-12-17T15:20:06.799Z,100724.63
2018-12-17T15:22:36.132Z,100730.80
2018-12-17T15:25:04.843Z,100726.05
2018-12-17T15:27:33.583Z,100733.88
2018-12-17T15:30:01.910Z,100735.18
2018-12-17T15:32:34.051Z,100737.19
2018-12-17T15:35:02.506Z,100749.69
2018-12-17T15:37:30.930Z,100751.83
2018-12-17T15:39:59.109Z,100752.66
2018-12-17T15:42:27.277Z,100754.09
2018-12-17T15:44:55.370Z,100746.75
2018-12-17T15:47:23.610Z,100758.48
2018-12-17T15:49:52.120Z,100764.52
2018-12-17T15:52:20.830Z,100770.51
2018-12-17T15:54:48.929Z,100769.11
2018-12-17T15:57:17.090Z,100769.20
2018-12-17T15:59:45.698Z,100783.38
2018-12-17T16:02:13.890Z,100786.05
2018-12-17T16:04:42.241Z,100788.66
2018-12-17T16:07:10.450Z,100791.10
2018-12-17T16:09:38.972Z,100791.67
2018-12-17T16:12:07.278Z,100796.31
2018-12-17T16:14:35.378Z,100792.80
2018-12-17T16:17:03.770Z,100801.53
2018-12-17T16:19:33.028Z,100803.54
2018-12-17T16:22:01.550Z,100809.66
2018-12-17T16:24:30.078Z,100812.36
2018-12-17T16:26:58.509Z,100820.95
2018-12-17T16:29:27.219Z,100815.01
2018-12-17T16:31:57.473Z,100819.09
2018-12-17T16:34:26.138Z,100823.83
2018-12-17T16:36:55.106Z,100825.84
2018-12-17T16:39:23.490Z,100825.44
2018-12-17T16:41:52.172Z,100838.71
2018-12-17T16:44:20.618Z,100838.11
2018-12-17T16:46:49.189Z,100836.73
2018-12-17T16:49:17.577Z,100834.53
2018-12-17T16:51:49.306Z,100840.52
2018-12-17T16:54:17.660Z,100841.64
2018-12-17T16:56:46.058Z,100847.16
2018-12-17T16:59:14.965Z,100851.52
2018-12-17T17:01:43.430Z,100856.16
2018-12-17T17:04:11.878Z,100857.90
2018-12-17T17:06:40.311Z,100861.07
2018-12-17T17:09:08.978Z,100865.72
2018-12-17T17:11:37.978Z,100861.91
2018-12-17T17:14:06.450Z,100861.28
2018-12-17T17:16:34.909Z,100871.87
2018-12-17T17:19:03.398Z,100878.69
2018-12-17T17:21:32.410Z,100888.82
2018-12-17T17:24:00.878Z,100882.28
2018-12-17T17:26:29.578Z,100888.27
2018-12-17T17:28:58.118Z,100889.33
2018-12-17T17:31:26.652Z,100895.46
2018-12-17T17:33:55.130Z,100904.22
2018-12-17T17:36:23.610Z,100898.77
2018-12-17T17:38:52.418Z,100898.67
2018-12-17T17:41:20.990Z,100893.30
2018-12-17T17:43:49.379Z,100896.67
2018-12-17T17:46:18.123Z,100904.70
2018-12-17T17:48:46.698Z,100906.31
2018-12-17T17:51:15.238Z,100914.14
2018-12-17T17:53:43.750Z,100911.83
2018-12-17T17:56:12.210Z,100910.46
2018-12-17T17:58:41.010Z,100905.41
2018-12-17T18:01:09.532Z,100921.23
2018-12-17T18:03:38.286Z,100927.91
2018-12-17T18:06:07.192Z,100930.12
2018-12-17T18:08:35.859Z,100930.73
2018-12-17T18:24:35.957Z,100953.42
2018-12-17T18:29:47.110Z,100962.32
2018-12-17T18:32:15.638Z,100964.77
2018-12-17T18:34:44.271Z,100959.31
2018-12-17T18:37:13.345Z,100971.37
2018-12-17T18:39:42.629Z,100973.60
2018-12-17T18:42:11.538Z,100980.83
2018-12-17T18:44:40.350Z,100973.73
2018-12-17T18:47:09.651Z,100976.28
2018-12-17T18:49:51.189Z,100981.03
2018-12-17T18:52:19.798Z,100988.49
2018-12-17T18:54:49.458Z,100988.09
2018-12-17T18:57:18.318Z,100992.10
2018-12-17T18:59:46.850Z,100991.70
2018-12-17T19:02:15.949Z,100996.16
2018-12-17T19:04:48.990Z,100993.55
2018-12-17T19:07:18.638Z,101007.13
2018-12-17T19:09:47.140Z,101008.38
2018-12-17T19:12:18.026Z,101016.67
2018-12-17T19:14:46.769Z,101019.41
2018-12-17T19:17:15.289Z,101012.45
2018-12-17T19:19:44.057Z,101028.01
2018-12-17T19:22:12.715Z,101023.79
2018-12-17T19:24:41.298Z,101043.45
2018-12-17T19:27:13.150Z,101040.30
2018-12-17T19:29:41.790Z,101050.44
2018-12-17T19:32:11.758Z,101044.81
2018-12-17T19:34:47.111Z,101043.51
2018-12-17T19:37:17.938Z,101048.34
2018-12-17T19:39:50.330Z,101044.89
2018-12-17T19:42:26.109Z,101055.95
2018-12-17T19:45:00.020Z,101063.84
2018-12-17T19:47:30.937Z,101063.38
2018-12-17T20:04:57.357Z,101052.80
2018-12-17T20:07:26.450Z,101052.78
2018-12-17T20:10:00.011Z,101058.80
2018-12-17T20:12:33.030Z,101062.34
2018-12-17T20:15:02.878Z,101064.55
2018-12-17T20:17:33.862Z,101066.94
2018-12-17T20:20:03.298Z,101076.81
2018-12-17T20:22:35.590Z,101080.14
2018-12-17T20:25:09.550Z,101077.13
2018-12-17T20:27:51.151Z,101079.52
2018-12-17T20:47:44.818Z,101091.58
2018-12-17T20:50:41.758Z,101092.35
2018-12-17T20:53:15.850Z,101094.66
2018-12-17T20:55:49.638Z,101090.48
2018-12-17T20:58:32.937Z,101095.86
2018-12-17T21:01:08.393Z,101110.00
2018-12-17T21:03:40.580Z,101110.21
2018-12-17T21:06:13.038Z,101116.73
2018-12-17T21:11:36.478Z,101111.67
2018-12-17T21:14:08.293Z,101116.06
2018-12-17T21:16:36.898Z,101117.20
2018-12-17T21:19:05.358Z,101110.75
2018-12-17T21:21:33.858Z,101114.28
2018-12-17T21:24:02.350Z,101112.61
2018-12-17T21:26:30.938Z,101115.90
2018-12-17T21:28:59.438Z,101117.20
2018-12-17T21:31:28.010Z,101124.51
2018-12-17T21:33:56.558Z,101119.45
2018-12-17T21:36:25.138Z,101127.80
2018-12-17T21:38:53.730Z,101123.67
2018-12-17T21:41:22.259Z,101131.63
2018-12-17T21:43:50.837Z,101133.09
2018-12-17T21:46:19.397Z,101132.71
2018-12-17T21:48:48.858Z,101132.56
2018-12-17T21:51:18.318Z,101136.00
2018-12-17T21:53:47.028Z,101136.00
2018-12-17T21:56:15.429Z,101135.54
2018-12-17T21:58:43.938Z,101134.76
2018-12-17T22:01:16.110Z,101138.92
2018-12-17T22:03:44.537Z,101142.37
2018-12-17T22:06:12.949Z,101148.00
2018-12-17T22:08:41.425Z,101148.73
2018-12-17T22:11:09.883Z,101153.27
2018-12-17T22:13:38.237Z,101161.63
2018-12-17T22:16:06.557Z,101151.97
2018-12-17T22:18:35.217Z,101151.49
2018-12-17T22:21:03.309Z,101153.27
2018-12-17T22:23:31.677Z,101151.95
2018-12-17T22:25:59.957Z,101154.78
2018-12-17T22:28:28.150Z,101154.16
2018-12-17T22:30:56.805Z,101161.31
2018-12-17T22:33:24.958Z,101168.00
2018-12-17T22:35:53.069Z,101173.06
2018-12-17T22:38:21.309Z,101178.69
2018-12-17T22:40:49.529Z,101171.48
2018-12-17T22:43:17.671Z,101181.62
2018-12-17T22:45:45.728Z,101185.53
2018-12-17T22:48:13.957Z,101180.53
2018-12-17T22:50:42.172Z,101181.25
2018-12-17T22:53:10.450Z,101184.13
2018-12-17T22:55:38.548Z,101179.47
2018-12-17T22:58:06.748Z,101186.53
2018-12-17T23:00:34.948Z,101187.98
2018-12-17T23:03:03.175Z,101180.78
2018-12-17T23:05:31.336Z,101185.48
2018-12-17T23:07:59.828Z,101180.31
2018-12-17T23:10:44.835Z,101186.69
2018-12-17T23:13:23.875Z,101183.30
2018-12-17T23:16:03.112Z,101182.67
2018-12-17T23:18:29.857Z,101186.67
2018-12-17T23:20:58.008Z,101190.50
2018-12-17T23:23:26.378Z,101186.43
2018-12-17T23:25:54.516Z,101181.21
2018-12-17T23:28:22.696Z,101182.67
2018-12-17T23:30:50.796Z,101189.20
2018-12-17T23:33:18.868Z,101188.67
2018-12-17T23:35:46.958Z,101188.67
2018-12-17T23:38:15.016Z,101181.77
2018-12-17T23:40:43.151Z,101183.39
2018-12-17T23:43:11.316Z,101188.83
2018-12-17T23:45:39.367Z,101180.41
2018-12-17T23:48:07.467Z,101186.63
2018-12-17T23:50:35.715Z,101188.67
2018-12-17T23:53:03.816Z,101185.16
2018-12-17T23:55:31.998Z,101186.78
2018-12-17T23:58:00.068Z,101191.16
